Time;durP1;ratioP1;P1;durP2;ratioP2;P2;SDS_P1;SDS_P2;PMS_P1;PMS_P2;Temp;Humidity;BMP_temperature;BMP_pressure;BME280_temperature;BME280_humidity;BME280_pressure;Samples;Min_cycle;Max_cycle;Signal;HPM_P1;HPM_P2
2023/10/05 00:00:33;;;;;;;17.02;4.78;;;13.80;99.90;;;12.74;87.82;101385.59;5999520;23;20595;-81
2023/10/05 00:02:48;;;;;;;18.67;4.25;;;13.70;99.90;;;12.71;88.33;101386.59;6052670;23;20013;-81
2023/10/05 00:05:14;;;;;;;18.30;4.40;;;13.80;99.90;;;12.72;87.87;101385.69;6045436;23;20411;-81
2023/10/05 00:07:40;;;;;;;18.13;4.28;;;13.80;99.90;;;12.72;87.93;101385.69;6022853;23;20017;-81
2023/10/05 00:10:06;;;;;;;15.15;3.88;;;13.80;99.90;;;12.74;88.21;101377.69;6026824;23;20365;-81
2023/10/05 00:12:59;;;;;;;15.00;4.10;;;13.80;99.90;;;12.72;87.82;101374.25;5997466;23;20018;-81
2023/10/05 00:15:27;;;;;;;13.25;4.10;;;13.80;99.90;;;12.73;88.34;101373.34;5871992;24;20416;-80
2023/10/05 00:18:19;;;;;;;22.63;4.53;;;13.80;99.90;;;12.75;88.25;101374.13;5926332;24;20040;-81
2023/10/05 00:20:48;;;;;;;20.95;4.30;;;13.80;99.90;;;12.74;88.28;101369.75;5858992;24;20417;-80
2023/10/05 00:23:25;;;;;;;17.05;4.82;;;13.80;99.90;;;12.71;88.41;101360.19;5918869;23;20087;-80
2023/10/05 00:25:58;;;;;;;15.10;4.40;;;13.80;99.90;;;12.76;88.19;101362.59;5899398;23;20051;-81
2023/10/05 00:28:26;;;;;;;17.52;4.95;;;13.80;99.90;;;12.75;88.28;101358.25;5956554;23;20457;-82
2023/10/05 00:30:54;;;;;;;15.20;4.40;;;13.80;99.90;;;12.77;88.34;101355.56;5863662;23;20359;-81
2023/10/05 00:33:20;;;;;;;13.63;4.68;;;13.80;99.90;;;12.79;88.03;101353.72;5907717;23;20027;-81
2023/10/05 00:35:47;;;;;;;12.88;4.38;;;13.80;99.90;;;12.79;87.92;101346.63;5908640;24;20044;-81
2023/10/05 00:38:18;;;;;;;18.08;4.07;;;13.80;99.90;;;12.79;87.87;101348.44;5867580;23;20016;-82
2023/10/05 00:40:57;;;;;;;18.17;4.25;;;13.90;99.90;;;12.82;88.04;101349.13;5822173;23;20027;-81
2023/10/05 00:43:24;;;;;;;18.55;4.70;;;;;;;12.81;87.73;101350.06;5914895;23;20023;-82
2023/10/05 00:46:03;;;;;;;14.00;4.13;;;13.90;99.90;;;12.83;87.76;101345.56;5883501;23;20553;-82
2023/10/05 00:48:34;;;;;;;15.80;4.45;;;13.90;99.90;;;12.82;87.55;101345.63;5906616;23;20485;-81
2023/10/05 00:51:12;;;;;;;17.92;4.47;;;;;;;12.85;87.74;101340.19;5867501;24;20607;-83
2023/10/05 00:53:47;;;;;;;16.90;4.53;;;13.90;99.90;;;12.82;87.78;101343.84;5979274;23;20030;-81
2023/10/05 00:56:15;;;;;;;14.02;4.18;;;13.90;99.90;;;12.84;87.84;101341.13;5972646;23;20034;-80
2023/10/05 00:59:04;;;;;;;18.92;4.53;;;13.90;99.90;;;12.85;87.79;101338.41;5960518;23;20050;-82
2023/10/05 01:01:35;;;;;;;16.25;4.80;;;13.90;99.90;;;12.79;87.71;101322.84;5977670;23;20960;-80
2023/10/05 01:09:40;;;;;;;15.90;4.90;;;13.90;99.90;;;12.84;87.43;101322.63;5933106;23;20077;-80
2023/10/05 01:12:22;;;;;;;19.63;4.97;;;13.90;99.90;;;12.82;87.89;101312.13;5892111;23;20031;-82
2023/10/05 01:14:54;;;;;;;15.75;4.38;;;;;;;12.85;87.76;101306.72;5835645;24;20021;-82
2023/10/05 01:17:37;;;;;;;12.50;3.70;;;13.90;99.90;;;12.90;87.56;101315.25;5871367;23;20044;-82
2023/10/05 01:20:12;;;;;;;16.33;4.00;;;14.00;99.90;;;12.94;87.17;101316.00;5908082;23;20452;-81
2023/10/05 01:22:39;;;;;;;15.87;4.17;;;14.00;99.90;;;12.93;87.28;101308.97;5939740;23;20509;-80
2023/10/05 01:25:14;;;;;;;15.98;3.65;;;14.00;99.90;;;12.93;86.71;101309.81;5961394;23;20085;-81
2023/10/05 01:27:54;;;;;;;15.48;4.32;;;14.00;99.90;;;12.95;86.94;101308.91;6011699;23;20470;-82
2023/10/05 01:30:22;;;;;;;20.35;3.88;;;14.00;99.90;;;12.95;87.00;101296.53;5977449;23;20563;-80
2023/10/05 01:32:49;;;;;;;17.65;4.63;;;14.00;99.90;;;12.96;87.06;101292.09;5937763;23;20019;-81
2023/10/05 01:35:41;;;;;;;15.02;4.47;;;14.00;99.90;;;12.96;86.72;101279.78;5940496;23;20473;-81
2023/10/05 01:38:07;;;;;;;16.63;3.75;;;14.00;99.90;;;12.95;86.64;101285.97;5949265;23;20078;-81
2023/10/05 01:40:36;;;;;;;28.98;5.82;;;14.00;99.90;;;12.97;86.53;101284.13;5973808;23;20014;-82
2023/10/05 01:43:04;;;;;;;13.98;4.63;;;14.00;99.90;;;13.00;86.50;101275.16;6022650;23;20078;-81
2023/10/05 01:45:34;;;;;;;16.65;4.65;;;14.10;99.90;;;12.99;86.60;101268.19;6015424;23;20044;-81
2023/10/05 01:48:12;;;;;;;23.83;5.03;;;14.00;99.90;;;12.96;86.55;101270.97;6027317;23;20009;-80
2023/10/05 01:50:39;;;;;;;15.77;3.83;;;14.00;99.90;;;12.97;86.34;101264.75;6098589;23;20016;-80
2023/10/05 01:53:19;;;;;;;15.65;3.72;;;14.00;99.90;;;12.97;86.28;101265.59;6117777;23;25684;-81
2023/10/05 01:55:54;;;;;;;14.80;4.13;;;14.00;99.90;;;12.92;86.32;101262.34;6034193;23;22316;-82
2023/10/05 01:58:24;;;;;;;14.75;3.90;;;14.00;99.90;;;12.90;85.86;101251.84;6066726;23;20742;-81
2023/10/05 02:00:56;;;;;;;12.75;3.97;;;14.00;99.90;;;12.90;86.10;101262.41;6039425;23;20041;-82
2023/10/05 02:03:25;;;;;;;18.80;4.30;;;14.00;99.90;;;12.88;86.38;101258.13;6023161;23;20033;-81
2023/10/05 02:06:02;;;;;;;12.65;3.92;;;13.60;99.90;;;12.86;86.39;101255.56;6053970;23;20076;-81
2023/10/05 02:08:31;;;;;;;13.27;3.65;;;13.90;99.90;;;12.82;86.06;101258.41;6097308;23;20075;-80
2023/10/05 02:11:09;;;;;;;13.45;4.15;;;13.80;99.90;;;12.78;86.14;101259.50;6044046;23;20014;-80
2023/10/05 02:13:45;;;;;;;21.35;5.20;;;13.80;99.90;;;12.81;86.19;101252.28;6019384;23;20013;-81
2023/10/05 02:16:13;;;;;;;;;;;13.80;99.90;;;12.72;86.37;101248.28;5975185;23;20484;-82
2023/10/05 02:18:39;;;;;;;17.42;4.20;;;13.80;99.90;;;12.69;86.47;101242.28;6020096;23;20284;-81
2023/10/05 02:21:17;;;;;;;18.70;3.80;;;13.80;99.90;;;12.68;86.80;101236.16;5995181;23;20093;-82
2023/10/05 02:23:44;;;;;;;16.67;4.05;;;13.80;99.90;;;12.67;86.78;101223.84;6038170;23;20013;-81
2023/10/05 02:29:31;;;;;;;16.25;3.85;;;13.70;99.90;;;12.63;87.24;101217.00;6065940;23;20580;-82
2023/10/05 02:37:05;;;;;;;12.90;3.97;;;13.70;99.90;;;12.67;87.00;101212.44;5902421;23;20617;-81
2023/10/05 02:39:37;;;;;;;16.83;4.15;;;13.80;99.90;;;12.65;87.11;101203.72;5878324;23;20382;-81
2023/10/05 02:42:25;;;;;;;11.82;3.95;;;13.70;99.90;;;12.68;87.42;101216.81;5908607;23;20035;-81
2023/10/05 02:45:02;;;;;;;16.55;3.95;;;13.70;99.90;;;12.69;86.81;101210.56;5913239;23;20031;-81
2023/10/05 02:47:29;;;;;;;16.27;4.10;;;13.70;99.90;;;12.66;87.31;101202.81;5912006;23;20462;-80
2023/10/05 02:50:15;;;;;;;14.85;4.32;;;;;;;12.68;87.06;101211.53;5858376;23;20020;-81
2023/10/05 02:52:44;;;;;;;16.48;4.25;;;13.70;99.90;;;12.70;87.29;101202.59;5926861;23;20019;-82
2023/10/05 02:55:14;;;;;;;15.43;4.22;;;13.70;99.90;;;12.67;87.67;101199.22;5908582;23;20130;-82
2023/10/05 02:57:43;;;;;;;12.50;3.92;;;13.80;99.90;;;12.69;87.62;101202.66;5885322;23;20028;-81
2023/10/05 03:00:25;;;;;;;18.65;4.65;;;13.80;99.90;;;12.74;87.35;101198.00;5938733;23;20023;-81
2023/10/05 03:02:55;;;;;;;16.58;3.88;;;13.80;99.90;;;12.70;87.56;101191.16;5919439;23;20039;-82
2023/10/05 03:05:24;;;;;;;14.15;4.13;;;13.70;99.90;;;12.68;87.63;101193.03;5938390;23;20011;-82
2023/10/05 03:07:53;;;;;;;16.42;5.00;;;;;;;12.71;87.69;101192.88;5942640;23;20043;-81
2023/10/05 03:10:29;;;;;;;;;;;;;;;;;;;;;
2023/10/05 03:12:58;;;;;;;12.88;3.60;;;13.80;99.90;;;12.71;87.55;101183.16;6026652;23;20092;-82
2023/10/05 03:15:27;;;;;;;13.73;4.32;;;13.70;99.90;;;12.70;87.67;101183.25;5994616;23;20023;-80
2023/10/05 03:18:16;;;;;;;15.55;4.22;;;13.80;99.90;;;12.68;88.10;101167.47;6049166;23;20538;-82
2023/10/05 03:20:46;;;;;;;17.08;4.38;;;13.70;99.90;;;12.68;87.71;101172.75;5970292;23;20085;-81
2023/10/05 03:23:14;;;;;;;15.27;3.80;;;;;;;12.65;88.08;101170.22;6059507;23;20005;-82
2023/10/05 03:25:47;;;;;;;11.57;4.32;;;13.70;99.90;;;12.68;88.25;101158.69;6032967;23;20092;-82
2023/10/05 03:28:15;;;;;;;19.13;3.90;;;13.70;99.90;;;12.67;88.29;101160.44;6033915;23;20020;-82
2023/10/05 03:30:50;;;;;;;13.70;3.90;;;13.70;99.90;;;12.65;88.20;101167.59;6040745;23;20020;-81
2023/10/05 03:33:17;;;;;;;12.32;4.05;;;13.70;99.90;;;12.64;88.14;101149.19;6042077;23;20013;-81
2023/10/05 03:35:58;;;;;;;12.07;3.72;;;13.70;99.90;;;12.64;88.26;101144.75;6039089;23;20119;-81
2023/10/05 03:38:27;;;;;;;21.95;4.78;;;13.70;99.90;;;12.63;88.68;101140.38;6036120;23;20029;-82
2023/10/05 03:40:54;;;;;;;18.20;4.22;;;;;;;12.64;88.90;101150.03;6024346;23;20758;-82
2023/10/05 03:43:21;;;;;;;14.52;3.88;;;13.70;99.90;;;12.61;89.25;101149.31;6095563;23;20018;-81
2023/10/05 03:45:46;;;;;;;13.90;4.25;;;13.70;99.90;;;12.55;89.56;101147.84;6053686;23;20025;-80
2023/10/05 03:48:13;;;;;;;18.20;4.45;;;13.60;99.90;;;12.52;89.38;101137.41;6070412;23;20020;-81
2023/10/05 03:50:38;;;;;;;12.05;3.90;;;13.60;99.90;;;12.51;90.06;101141.84;6057327;23;20012;-81
2023/10/05 03:53:08;;;;;;;18.50;4.68;;;13.60;99.90;;;12.48;89.81;101139.38;6067963;23;20455;-81
2023/10/05 03:55:37;;;;;;;12.27;3.70;;;13.60;99.90;;;12.51;89.89;101135.72;6027556;23;20414;-81
2023/10/05 03:58:07;;;;;;;16.83;4.07;;;;;;;12.48;89.90;101134.09;6007748;23;20463;-81
2023/10/05 04:00:58;;;;;;;18.92;4.22;;;13.60;99.90;;;12.51;90.42;101139.22;6075266;23;20016;-81
2023/10/05 04:03:25;;;;;;;16.08;4.35;;;13.60;99.90;;;12.51;90.66;101143.63;5854984;23;20246;-81
2023/10/05 04:06:01;;;;;;;15.32;4.05;;;13.60;99.90;;;12.45;91.06;101128.09;5920977;23;20043;-81
2023/10/05 04:08:27;;;;;;;13.75;4.13;;;13.50;99.90;;;12.47;91.55;101123.59;5937471;23;20019;-80
2023/10/05 04:10:54;;;;;;;16.63;4.35;;;13.50;99.90;;;12.42;92.19;101126.44;6003067;23;20023;-79
2023/10/05 04:13:22;;;;;;;19.33;4.68;;;13.50;99.90;;;12.41;92.56;101124.72;5988004;23;20038;-80
2023/10/05 04:15:55;;;;;;;17.05;5.03;;;13.50;99.90;;;12.43;92.85;101120.22;5916466;23;20059;-81
2023/10/05 04:18:21;;;;;;;19.13;4.28;;;13.40;99.90;;;12.35;93.73;101125.00;5948611;23;20642;-81
2023/10/05 04:20:47;;;;;;;15.95;3.80;;;13.50;99.90;;;12.34;94.20;101117.19;5952526;23;22126;-80
2023/10/05 04:23:22;;;;;;;18.38;4.63;;;13.40;99.90;;;12.29;94.66;101120.03;5986310;23;20103;-81
2023/10/05 04:25:51;;;;;;;19.33;4.30;;;13.30;99.90;;;12.23;95.60;101107.13;5964314;23;20030;-81
2023/10/05 04:28:39;;;;;;;20.52;4.18;;;13.30;99.90;;;12.20;97.17;101109.91;5951607;23;20094;-82
2023/10/05 04:31:11;;;;;;;18.73;4.32;;;13.30;99.90;;;12.20;97.93;101096.69;5971150;23;20016;-81
2023/10/05 04:33:45;;;;;;;15.02;3.72;;;13.30;99.90;;;12.17;98.67;101099.50;5956919;23;20049;-83
2023/10/05 04:36:16;;;;;;;17.50;4.82;;;13.30;99.90;;;12.15;99.30;101091.63;5957232;23;20037;-83
2023/10/05 04:38:46;;;;;;;22.35;4.95;;;13.20;99.90;;;12.13;100.00;101097.94;5885326;23;20016;-83
2023/10/05 04:41:16;;;;;;;17.75;4.50;;;13.20;99.90;;;12.08;100.00;101085.78;5996748;23;20020;-81
2023/10/05 04:43:43;;;;;;;22.10;4.85;;;13.20;99.90;;;12.07;100.00;101081.47;6080433;23;20403;-82
2023/10/05 04:46:18;;;;;;;19.48;5.25;;;13.20;99.90;;;12.08;100.00;101082.31;6067457;23;20018;-82
2023/10/05 04:48:55;;;;;;;17.40;4.05;;;13.20;99.90;;;12.10;100.00;101088.38;6085375;23;20023;-84
2023/10/05 04:51:26;;;;;;;16.63;4.15;;;13.20;99.90;;;12.10;100.00;101094.50;6102681;23;20028;-83
2023/10/05 04:53:54;;;;;;;17.08;4.32;;;13.20;99.90;;;12.10;100.00;101083.94;6073415;23;20081;-81
2023/10/05 04:56:53;;;;;;;15.90;4.20;;;13.20;99.90;;;12.16;100.00;101084.56;6039041;23;20017;-81
2023/10/05 04:59:37;;;;;;;15.07;4.15;;;13.30;99.90;;;12.19;100.00;101085.28;6088235;23;20023;-82
2023/10/05 05:02:21;;;;;;;17.55;4.13;;;13.20;99.90;;;12.19;100.00;101074.72;6060963;23;20013;-82
2023/10/05 05:07:36;;;;;;;18.00;4.53;;;13.30;99.90;;;12.22;100.00;101074.56;6029708;23;20357;-81
2023/10/05 05:10:05;;;;;;;18.75;4.55;;;13.30;99.90;;;12.25;100.00;101071.81;6027480;23;20018;-82
2023/10/05 05:12:31;;;;;;;18.13;3.85;;;13.30;99.90;;;12.25;100.00;101069.16;6043923;23;20024;-81
2023/10/05 05:14:57;;;;;;;16.08;4.30;;;13.30;99.90;;;12.29;100.00;101075.16;6028302;23;20018;-81
2023/10/05 05:17:28;;;;;;;14.55;3.53;;;13.40;99.90;;;12.30;99.97;101067.16;6023166;23;20028;-81
2023/10/05 05:19:55;;;;;;;15.85;4.35;;;13.40;99.90;;;12.32;99.47;101075.84;6046762;23;20374;-81
2023/10/05 05:22:21;;;;;;;11.90;3.33;;;13.40;99.90;;;12.33;99.30;101076.69;6028293;23;20037;-81
2023/10/05 05:24:50;;;;;;;21.50;3.95;;;13.40;99.90;;;12.36;98.49;101071.28;6095719;23;20555;-81
2023/10/05 05:29:50;;;;;;;17.73;3.80;;;13.40;99.90;;;12.36;98.66;101050.16;6061534;23;20016;-80
2023/10/05 05:32:27;;;;;;;19.77;4.47;;;13.40;99.90;;;12.34;98.70;101056.44;6053455;23;20534;-79
2023/10/05 05:34:52;;;;;;;13.70;3.93;;;13.40;99.90;;;12.27;98.66;101051.47;6050300;23;20045;-78
2023/10/05 05:37:28;;;;;;;17.92;4.53;;;13.40;99.90;;;12.31;99.05;101049.53;6039348;23;20884;-78
2023/10/05 05:40:09;;;;;;;10.25;3.17;;;13.40;99.90;;;12.33;98.44;101050.28;6066100;23;20044;-79
2023/10/05 05:42:35;;;;;;;24.10;4.80;;;13.40;99.90;;;12.37;98.93;101048.38;6013415;23;20041;-79
2023/10/05 05:45:06;;;;;;;17.60;4.10;;;13.50;99.90;;;12.36;98.40;101047.53;6099149;23;20416;-79
2023/10/05 05:47:35;;;;;;;16.23;3.35;;;13.50;99.90;;;12.37;98.40;101045.72;6083054;23;20418;-80
2023/10/05 05:50:02;;;;;;;18.27;3.92;;;13.40;99.90;;;12.38;98.51;101048.31;6056973;23;20013;-80
2023/10/05 05:52:28;;;;;;;13.35;3.20;;;13.50;99.90;;;12.39;99.19;101057.91;6087068;23;20693;-79
2023/10/05 05:54:54;;;;;;;19.75;3.92;;;13.50;99.90;;;12.41;99.76;101057.84;6074248;23;20013;-79
2023/10/05 05:57:20;;;;;;;19.85;3.70;;;13.50;99.90;;;12.45;100.00;101059.41;6043734;23;20077;-79
2023/10/05 05:59:49;;;;;;;15.48;4.00;;;13.50;99.90;;;12.43;100.00;101051.56;6120490;23;20111;-79
2023/10/05 06:02:14;;;;;;;16.00;4.07;;;13.50;99.90;;;12.41;100.00;101056.06;6100035;23;20067;-79
2023/10/05 06:04:41;;;;;;;19.55;4.63;;;13.50;99.90;;;12.41;100.00;101061.34;6060120;23;20013;-80
2023/10/05 06:07:17;;;;;;;14.65;3.80;;;13.60;99.90;;;12.45;100.00;101057.63;6112908;23;20040;-79
2023/10/05 06:09:46;;;;;;;19.90;4.00;;;13.50;99.90;;;12.46;100.00;101067.28;6082440;23;20034;-79
2023/10/05 06:12:15;;;;;;;17.92;3.28;;;13.60;99.90;;;12.48;100.00;101069.81;6093121;23;20064;-82
2023/10/05 06:14:46;;;;;;;17.73;4.15;;;13.50;99.90;;;12.45;100.00;101070.81;6109834;23;20032;-81
2023/10/05 06:17:12;;;;;;;12.82;3.58;;;13.50;99.90;;;12.44;100.00;101074.41;6072455;23;20009;-82
2023/10/05 06:19:37;;;;;;;21.80;3.80;;;13.50;99.90;;;12.44;100.00;101090.25;6114657;23;20014;-81
2023/10/05 06:22:06;;;;;;;23.75;4.28;;;13.50;99.90;;;12.42;100.00;101086.84;6078511;23;20360;-81
2023/10/05 06:24:38;;;;;;;17.98;4.25;;;13.50;99.90;;;12.41;100.00;101082.47;6118077;23;20096;-81
2023/10/05 06:27:06;;;;;;;24.60;5.10;;;13.50;99.90;;;12.41;100.00;101095.66;6055693;23;20040;-80
2023/10/05 06:29:33;;;;;;;19.52;4.30;;;13.50;99.90;;;12.41;100.00;101103.59;6095031;23;20570;-80
2023/10/05 06:32:08;;;;;;;14.95;4.95;;;13.50;99.90;;;12.40;100.00;101093.13;6040589;23;20040;-80
2023/10/05 06:34:37;;;;;;;17.60;4.18;;;13.50;99.90;;;12.34;100.00;101090.78;6117095;23;20028;-81
2023/10/05 06:37:04;;;;;;;14.15;4.25;;;13.50;99.90;;;12.37;100.00;101102.03;6099186;23;20139;-80
2023/10/05 06:39:39;;;;;;;21.92;4.57;;;13.50;99.90;;;12.47;100.00;101116.50;6068778;23;20348;-79
2023/10/05 06:42:06;;;;;;;17.13;4.97;;;13.60;99.90;;;12.58;100.00;101123.91;6093356;23;20614;-79
2023/10/05 06:44:33;;;;;;;20.08;4.65;;;13.70;99.90;;;12.64;100.00;101122.78;6098273;23;20575;-80
2023/10/05 06:47:04;;;;;;;22.15;4.38;;;13.70;99.90;;;12.63;100.00;101121.03;6067268;23;20669;-79
2023/10/05 06:49:30;;;;;;;17.58;3.95;;;13.70;99.90;;;12.61;100.00;101114.97;6091128;23;20013;-81
2023/10/05 06:51:56;;;;;;;17.65;4.30;;;13.70;99.90;;;12.64;100.00;101128.06;6019365;23;20013;-79
2023/10/05 06:54:39;;;;;;;15.38;3.85;;;13.70;99.90;;;12.72;100.00;101125.88;6059812;23;20020;-81
2023/10/05 06:57:13;;;;;;;17.08;3.90;;;13.70;99.90;;;12.67;100.00;101131.38;6096433;23;20791;-80
2023/10/05 06:59:42;;;;;;;19.33;4.00;;;13.70;99.90;;;12.68;100.00;101129.63;6072185;23;20067;-80
2023/10/05 07:02:08;;;;;;;18.08;3.85;;;13.70;99.90;;;12.64;100.00;101128.06;6059623;23;20025;-80
2023/10/05 07:04:39;;;;;;;21.83;4.65;;;13.70;99.90;;;12.68;100.00;101124.34;6075652;23;20001;-81
2023/10/05 07:07:05;;;;;;;20.85;4.28;;;13.80;99.90;;;12.73;100.00;101127.59;6088254;23;20098;-81
2023/10/05 07:09:31;;;;;;;16.17;3.95;;;13.80;99.90;;;12.70;100.00;101133.03;6037601;23;20778;-79
2023/10/05 07:11:57;;;;;;;16.67;3.90;;;13.80;99.90;;;12.73;100.00;101148.72;6074901;23;20179;-80
2023/10/05 07:14:24;;;;;;;17.20;3.85;;;13.80;99.90;;;12.78;100.00;101152.00;6054593;23;20073;-80
2023/10/05 07:16:57;;;;;;;14.52;3.72;;;13.80;99.90;;;12.81;100.00;101157.16;6089475;23;20495;-81
2023/10/05 07:19:23;;;;;;;17.02;3.67;;;13.80;99.90;;;12.80;100.00;101166.00;6076800;23;20105;-79
2023/10/05 07:21:49;;;;;;;13.50;3.67;;;13.90;99.90;;;12.81;100.00;101177.44;6077994;23;20021;-79
2023/10/05 07:24:14;;;;;;;16.48;4.40;;;13.90;99.90;;;12.72;100.00;101186.63;6060204;23;20243;-80
2023/10/05 07:26:41;;;;;;;16.70;4.45;;;13.80;99.90;;;12.62;100.00;101194.16;6069547;23;20022;-81
2023/10/05 07:29:15;;;;;;;18.95;4.57;;;13.80;99.90;;;12.66;100.00;101200.16;6084461;23;20028;-80
2023/10/05 07:31:41;;;;;;;17.92;4.40;;;13.90;99.90;;;12.73;100.00;101196.28;6103101;23;20522;-81
2023/10/05 07:34:07;;;;;;;18.83;4.70;;;13.90;99.90;;;12.83;100.00;101186.13;6161935;23;20072;-79
2023/10/05 07:36:38;;;;;;;23.75;4.80;;;13.90;99.90;;;12.89;100.00;101194.63;6144196;23;20018;-80
2023/10/05 07:39:11;;;;;;;19.52;4.03;;;13.90;99.90;;;12.96;100.00;101189.03;6086040;23;20680;-80
2023/10/05 07:41:36;;;;;;;13.13;4.18;;;14.00;99.90;;;13.00;100.00;101190.59;6057690;23;20009;-80
2023/10/05 07:44:03;;;;;;;18.13;5.22;;;14.00;99.90;;;13.06;100.00;101201.72;6000002;23;20049;-81
2023/10/05 07:46:36;;;;;;;18.40;4.45;;;14.10;99.90;;;13.09;100.00;101195.44;6009539;23;20501;-80
2023/10/05 07:49:03;;;;;;;16.13;3.90;;;14.10;99.90;;;13.17;100.00;101208.25;6124073;23;20013;-80
2023/10/05 07:51:28;;;;;;;15.88;4.07;;;14.10;99.90;;;13.12;100.00;101212.00;6085403;23;20416;-80
2023/10/05 07:53:54;;;;;;;17.20;4.40;;;14.20;99.90;;;13.15;100.00;101208.31;6113908;23;20013;-81
2023/10/05 07:56:20;;;;;;;15.18;4.43;;;14.20;99.90;;;13.16;100.00;101220.63;6096346;23;20645;-80
2023/10/05 07:58:46;;;;;;;13.98;3.70;;;14.20;99.90;;;13.21;100.00;101207.19;6037250;23;20104;-79
2023/10/05 08:01:18;;;;;;;10.10;3.67;;;14.30;99.90;;;13.31;100.00;101217.25;6061606;23;20017;-80
2023/10/05 08:03:45;;;;;;;17.02;3.60;;;14.40;99.90;;;13.45;100.00;101228.91;6061559;23;20093;-81
2023/10/05 08:06:15;;;;;;;16.15;3.45;;;14.40;99.90;;;13.48;100.00;101239.38;6091608;23;20092;-80
2023/10/05 08:08:47;;;;;;;12.95;3.30;;;14.50;99.90;;;13.52;100.00;101240.94;6079875;23;20032;-80
2023/10/05 08:11:13;;;;;;;11.88;3.50;;;14.50;99.90;;;13.59;100.00;101234.38;6076514;23;20018;-80
2023/10/05 08:13:54;;;;;;;14.20;3.00;;;14.50;99.90;;;13.64;100.00;101239.44;6061507;23;20103;-79
2023/10/05 08:16:22;;;;;;;13.05;2.75;;;14.70;99.90;;;13.73;100.00;101237.16;6107100;23;20036;-80
2023/10/05 08:18:55;;;;;;;8.57;3.10;;;14.70;99.90;;;13.74;100.00;101240.69;6033949;23;20013;-80
2023/10/05 08:21:24;;;;;;;13.77;2.92;;;14.80;99.90;;;13.79;100.00;101240.44;6090390;23;20484;-81
2023/10/05 08:23:51;;;;;;;13.65;3.13;;;14.80;99.90;;;13.85;100.00;101258.66;6046521;23;20024;-80
2023/10/05 08:26:19;;;;;;;11.15;2.20;;;14.80;99.90;;;13.92;100.00;101258.22;6067885;23;20024;-80
2023/10/05 08:28:50;;;;;;;7.30;2.58;;;14.90;99.90;;;14.04;100.00;101263.81;6064594;23;20009;-80
2023/10/05 08:31:23;;;;;;;13.23;2.10;;;15.00;99.90;;;14.15;100.00;101270.28;6100805;23;20017;-79
2023/10/05 08:33:51;;;;;;;6.38;1.50;;;15.10;99.90;;;14.20;100.00;101267.38;6091890;23;20025;-79
2023/10/05 08:36:17;;;;;;;8.68;2.17;;;15.20;99.90;;;14.26;100.00;101275.00;6090463;23;20005;-79
2023/10/05 08:38:47;;;;;;;6.68;1.90;;;15.30;99.90;;;14.31;100.00;101275.59;6080552;23;20017;-80
2023/10/05 08:41:48;;;;;;;12.00;2.08;;;15.40;99.90;;;14.48;100.00;101285.28;6089072;23;20057;-80
2023/10/05 08:44:36;;;;;;;9.50;1.98;;;15.40;99.90;;;14.64;100.00;101284.50;6143246;23;20017;-80
2023/10/05 08:47:08;;;;;;;7.53;1.60;;;15.60;99.90;;;14.77;100.00;101282.88;6150615;23;20010;-79
2023/10/05 08:49:34;;;;;;;6.95;1.48;;;15.70;99.90;;;14.95;100.00;101287.16;6113525;23;20021;-80
2023/10/05 08:52:08;;;;;;;5.47;1.65;;;15.90;99.90;;;15.02;100.00;101298.28;6047528;23;20009;-80
2023/10/05 08:54:37;;;;;;;3.28;1.15;;;16.10;99.90;;;15.30;100.00;101297.56;6057890;23;20008;-79
2023/10/05 08:57:09;;;;;;;4.82;1.20;;;16.30;99.90;;;15.55;99.89;101307.63;6076421;23;20380;-80
2023/10/05 08:59:45;;;;;;;13.13;1.70;;;16.40;99.90;;;15.83;97.74;101305.16;6044401;23;20017;-80
2023/10/05 09:02:18;;;;;;;9.38;1.40;;;16.70;99.90;;;15.96;95.19;101309.69;6137718;23;20352;-79
2023/10/05 09:04:57;;;;;;;8.15;1.20;;;16.80;99.90;;;16.03;92.85;101314.63;6139945;23;20041;-83
2023/10/05 09:07:41;;;;;;;8.80;1.23;;;17.00;99.90;;;16.21;91.79;101316.16;6097107;23;20059;-80
2023/10/05 09:10:15;;;;;;;8.52;1.23;;;17.10;99.90;;;16.23;91.49;101324.03;6069816;23;20026;-80
2023/10/05 09:12:46;;;;;;;6.68;1.25;;;17.10;99.90;;;16.34;91.29;101332.19;6085154;23;20017;-80
2023/10/05 09:18:38;;;;;;;7.32;1.15;;;17.20;99.90;;;16.34;89.08;101341.03;6139611;23;20018;-80
2023/10/05 09:20:49;;;;;;;5.10;0.88;;;17.20;99.90;;;16.28;86.98;101337.88;6113292;23;20025;-81
2023/10/05 09:23:27;;;;;;;4.18;0.93;;;17.20;99.90;;;16.29;86.49;101339.59;6131823;23;20013;-80
2023/10/05 09:25:53;;;;;;;5.95;1.35;;;17.30;99.90;;;16.45;88.58;101345.69;6106137;23;20064;-80
2023/10/05 09:28:52;;;;;;;5.28;0.93;;;17.30;99.90;;;16.38;88.10;101349.66;6115697;23;20028;-79
2023/10/05 09:31:22;;;;;;;5.85;1.30;;;17.30;99.90;;;16.35;87.51;101355.19;6020001;23;20026;-79
2023/10/05 09:33:53;;;;;;;3.97;1.02;;;17.30;99.90;;;16.29;87.79;101351.09;6022710;23;20090;-80
2023/10/05 09:36:22;;;;;;;7.13;1.23;;;17.20;99.90;;;16.29;88.09;101351.09;6016566;23;20015;-79
2023/10/05 09:38:59;;;;;;;4.43;0.68;;;17.20;99.90;;;16.25;88.17;101340.75;6031477;23;20378;-79
2023/10/05 09:41:29;;;;;;;4.88;1.25;;;17.20;99.90;;;16.29;87.65;101350.25;6012670;23;20023;-79
2023/10/05 09:44:04;;;;;;;5.80;1.33;;;17.30;99.90;;;16.40;88.69;101356.59;5979021;23;20021;-79
2023/10/05 09:46:39;;;;;;;8.35;1.25;;;17.30;99.90;;;16.45;87.62;101356.31;6019688;23;20074;-79
2023/10/05 09:49:09;;;;;;;9.05;1.85;;;17.30;99.90;;;16.44;87.37;101364.41;6043687;23;20478;-78
2023/10/05 09:51:43;;;;;;;6.18;1.20;;;17.30;99.90;;;16.33;85.53;101365.91;5994724;23;20019;-79
2023/10/05 09:54:11;;;;;;;8.02;1.00;;;17.40;99.90;;;16.55;86.81;101365.44;6044359;23;20015;-79
2023/10/05 09:56:43;;;;;;;10.25;1.55;;;17.50;99.90;;;16.61;84.76;101358.91;6056304;23;20035;-80
2023/10/05 09:59:15;;;;;;;4.68;1.13;;;17.50;99.90;;;16.65;83.51;101363.09;5989906;23;20015;-79
2023/10/05 10:01:48;;;;;;;7.38;1.23;;;17.60;99.90;;;16.65;83.23;101362.19;6036656;23;20010;-80
2023/10/05 10:07:23;;;;;;;11.35;1.40;;;17.40;99.90;;;16.39;83.18;101362.00;5915990;23;20336;-80
2023/10/05 10:09:55;;;;;;;9.48;1.45;;;17.30;99.90;;;16.35;84.28;101360.50;5993643;23;20023;-79
2023/10/05 10:12:37;;;;;;;5.30;1.10;;;17.30;99.90;;;16.30;85.69;101367.88;5980354;23;20043;-80
2023/10/05 10:15:25;;;;;;;5.28;1.15;;;17.20;99.90;;;16.02;86.98;101372.19;6008044;23;20367;-80
2023/10/05 10:18:06;;;;;;;10.43;1.42;;;17.10;99.90;;;15.75;85.76;101370.22;6005493;23;20047;-79
2023/10/05 10:20:35;;;;;;;5.35;1.15;;;16.80;99.90;;;15.58;84.89;101365.00;5996680;23;20022;-79
2023/10/05 10:23:19;;;;;;;8.02;1.50;;;16.70;99.90;;;15.42;85.48;101372.09;6017728;23;20114;-81
2023/10/05 10:25:50;;;;;;;7.53;1.27;;;16.60;99.90;;;15.47;86.95;101378.03;6029263;23;20490;-81
2023/10/05 10:31:26;;;;;;;9.38;1.35;;;16.50;99.90;;;15.47;87.00;101380.69;6028894;23;20056;-80
2023/10/05 10:33:54;;;;;;;11.82;1.20;;;16.40;99.90;;;15.46;87.44;101387.75;6018749;23;20018;-80
2023/10/05 10:36:41;;;;;;;10.35;1.65;;;16.50;99.90;;;15.54;88.76;101388.19;6001143;23;20545;-79
2023/10/05 10:39:22;;;;;;;8.48;1.33;;;16.50;99.90;;;15.64;89.01;101393.00;6031042;23;20095;-80
2023/10/05 10:42:07;;;;;;;5.22;1.30;;;16.60;99.90;;;15.72;89.06;101386.31;6016436;23;20027;-79
2023/10/05 10:47:26;;;;;;;9.48;1.30;;;16.60;99.90;;;15.65;87.08;101392.88;6126092;23;20018;-79
2023/10/05 10:50:11;;;;;;;11.35;1.70;;;16.60;99.90;;;15.57;87.53;101388.03;6155890;23;20449;-80
2023/10/05 10:52:43;;;;;;;10.95;1.70;;;16.60;99.90;;;15.78;87.94;101390.41;6135598;23;20009;-79
2023/10/05 10:55:14;;;;;;;9.52;1.65;;;16.70;99.90;;;15.70;87.11;101398.81;6140346;23;20014;-79
2023/10/05 10:57:54;;;;;;;9.93;1.30;;;16.90;99.90;;;15.91;86.40;101390.56;6115068;23;20013;-79